Time;durP1;ratioP1;P1;durP2;ratioP2;P2;SDS_P1;SDS_P2;PMS_P1;PMS_P2;Temp;Humidity;BMP_temperature;BMP_pressure;BME280_temperature;BME280_humidity;BME280_pressure;Samples;Min_cycle;Max_cycle;Signal;HPM_P1;HPM_P2
2022/06/20 00:02:23;;;;;;;16.65;6.58;;;;;;;17.16;78.94;100125.08;1764911;79;28120;-67
2022/06/20 00:04:52;;;;;;;16.35;6.17;;;;;;;17.11;79.43;100136.77;1756443;79;98946;-67
2022/06/20 00:07:20;;;;;;;17.75;6.03;;;;;;;17.05;79.12;100133.67;1759745;79;26004;-67
2022/06/20 00:09:53;;;;;;;13.10;5.50;;;;;;;17.07;78.89;100135.28;1762262;79;99102;-67
2022/06/20 00:12:26;;;;;;;19.27;5.67;;;;;;;17.05;79.37;100135.89;1747006;79;25831;-67
2022/06/20 00:14:57;;;;;;;15.65;6.25;;;;;;;16.90;79.40;100137.08;1735221;81;27460;-67
2022/06/20 00:17:26;;;;;;;11.12;5.37;;;;;;;16.82;79.48;100134.97;1733605;81;98917;-66
2022/06/20 00:19:53;;;;;;;12.63;4.40;;;;;;;16.79;79.32;100138.41;1735716;81;26424;-67
2022/06/20 00:22:20;;;;;;;12.30;4.60;;;;;;;16.80;79.45;100138.78;1732646;81;98941;-66
2022/06/20 00:24:47;;;;;;;12.68;5.00;;;;;;;16.79;79.43;100132.99;1736349;81;26136;-69
2022/06/20 00:27:14;;;;;;;20.23;5.67;;;;;;;16.76;79.31;100122.41;1735314;81;27446;-66
2022/06/20 00:29:43;;;;;;;16.40;6.50;;;;;;;16.72;79.19;100133.95;1738818;81;98754;-66
2022/06/20 00:32:11;;;;;;;16.97;5.80;;;;;;;16.73;78.98;100142.94;1735825;81;25713;-67
2022/06/20 00:34:38;;;;;;;15.80;6.35;;;;;;;16.70;79.13;100162.98;1737417;81;99003;-67
2022/06/20 00:37:06;;;;;;;16.12;6.33;;;;;;;16.66;79.17;100173.66;1733622;81;25651;-66
2022/06/20 00:39:32;;;;;;;18.60;6.33;;;;;;;16.60;79.06;100167.33;1731698;81;99133;-67
2022/06/20 00:42:04;;;;;;;40.12;8.95;;;;;;;16.54;79.03;100179.97;1733341;81;25789;-66
2022/06/20 00:44:44;;;;;;;25.48;7.10;;;;;;;16.48;78.90;100189.91;1725147;81;25669;-67
2022/06/20 00:47:20;;;;;;;26.70;7.75;;;;;;;16.44;78.75;100182.99;1732524;81;98905;-67
2022/06/20 00:50:17;;;;;;;21.37;7.58;;;;;;;16.36;78.94;100161.92;1734829;81;25780;-67
2022/06/20 00:52:57;;;;;;;16.97;6.65;;;;;;;16.24;78.96;100139.37;1730150;81;98817;-67
2022/06/20 00:55:37;;;;;;;30.47;7.83;;;;;;;16.14;79.85;100142.38;1730850;81;25918;-66
2022/06/20 00:58:15;;;;;;;26.23;9.20;;;;;;;16.08;79.55;100164.95;1729905;81;99166;-67
2022/06/20 01:00:41;;;;;;;28.10;8.48;;;;;;;16.04;79.31;100167.02;1734463;81;26031;-66
2022/06/20 01:03:13;;;;;;;28.17;8.30;;;;;;;16.02;79.15;100158.65;1713459;82;26507;-66
2022/06/20 01:05:54;;;;;;;27.85;7.83;;;;;;;15.95;79.14;100141.16;1732063;81;98683;-67
2022/06/20 01:08:35;;;;;;;24.75;7.90;;;;;;;15.96;79.09;100145.58;1734502;81;26404;-68
2022/06/20 01:11:09;;;;;;;28.30;8.18;;;;;;;16.00;78.97;100144.38;1738720;80;98885;-67
2022/06/20 01:13:36;;;;;;;25.27;8.75;;;;;;;16.03;78.75;100132.85;1726398;80;26879;-68
2022/06/20 01:16:16;;;;;;;28.67;10.35;;;;;;;15.98;79.12;100130.11;1730996;81;99063;-67
2022/06/20 01:18:45;;;;;;;27.13;9.33;;;;;;;15.85;79.17;100119.34;1700851;82;27705;-67
2022/06/20 01:21:16;;;;;;;22.40;7.90;;;;;;;15.74;79.24;100112.02;1714095;83;26251;-67
2022/06/20 01:24:19;;;;;;;15.58;7.65;;;;;;;15.77;79.32;100108.23;1723783;82;98673;-67
2022/06/20 01:27:13;;;;;;;31.45;8.75;;;;;;;15.84;79.22;100122.53;1728534;82;26490;-67
2022/06/20 01:29:40;;;;;;;30.65;9.08;;;;;;;15.78;79.15;100162.16;1726458;82;98707;-67
2022/06/20 01:32:08;;;;;;;17.55;7.65;;;;;;;15.78;79.25;100197.30;1727209;82;29494;-67
2022/06/20 01:34:35;;;;;;;22.60;7.60;;;;;;;15.80;79.17;100236.37;1699839;82;98938;-67
2022/06/20 01:39:55;;;;;;;25.30;6.87;;;;;;;15.79;79.41;100247.66;1720918;81;99162;-66
2022/06/20 01:42:23;;;;;;;17.42;6.83;;;;;;;15.82;79.23;100256.05;1724821;82;25346;-67
2022/06/20 01:44:58;;;;;;;13.88;6.62;;;;;;;15.81;79.17;100252.96;1729868;82;27529;-67
2022/06/20 01:47:24;;;;;;;14.68;5.70;;;;;;;15.81;79.18;100244.37;1720380;82;98966;-67
2022/06/20 01:49:55;;;;;;;16.93;6.15;;;;;;;15.77;79.10;100246.05;1727089;82;25716;-66
2022/06/20 01:52:25;;;;;;;;;;;;;;;15.71;78.99;100237.03;1729803;82;98885;-66
2022/06/20 01:54:56;;;;;;;14.47;6.37;;;;;;;15.66;79.13;100235.14;1712155;82;25924;-67
2022/06/20 01:57:27;;;;;;;10.30;5.00;;;;;;;15.61;79.10;100234.11;1723159;82;99092;-66
2022/06/20 02:00:00;;;;;;;17.60;6.53;;;;;;;15.59;79.00;100226.63;1727109;82;25862;-66
2022/06/20 02:02:29;;;;;;;11.35;5.20;;;;;;;15.58;79.04;100216.31;1728346;82;26445;-66
2022/06/20 02:04:57;;;;;;;11.08;4.92;;;;;;;15.53;78.95;100209.47;1723023;82;98982;-67
2022/06/20 02:07:25;;;;;;;12.25;4.72;;;;;;;15.53;79.00;100191.43;1728566;82;26630;-67
2022/06/20 02:09:52;;;;;;;16.65;5.35;;;;;;;15.57;78.90;100155.64;1726930;82;99168;-67
2022/06/20 02:12:20;;;;;;;12.20;5.30;;;;;;;15.60;78.88;100144.61;1728623;82;27024;-67
2022/06/20 02:14:58;;;;;;;11.33;5.12;;;;;;;15.56;78.79;100163.33;1730710;82;25762;-67
2022/06/20 02:17:32;;;;;;;11.33;5.10;;;;;;;15.60;78.80;100170.28;1723857;82;98783;-67
2022/06/20 02:20:06;;;;;;;13.28;5.10;;;;;;;15.65;78.84;100155.05;1729319;82;25906;-66
2022/06/20 02:22:34;;;;;;;9.65;4.65;;;;;;;15.66;78.68;100186.02;1726384;82;98811;-67
2022/06/20 02:25:05;;;;;;;6.72;4.47;;;;;;;15.71;78.79;100202.77;1727080;81;25851;-65
2022/06/20 02:27:47;;;;;;;11.28;5.58;;;;;;;15.68;78.60;100225.95;1728315;82;98942;-67
2022/06/20 02:30:15;;;;;;;8.95;5.10;;;;;;;15.58;78.72;100218.15;1722782;82;26161;-66
2022/06/20 02:32:49;;;;;;;8.18;4.03;;;;;;;15.50;78.74;100220.50;1731436;82;26345;-66
2022/06/20 02:35:19;;;;;;;7.12;3.92;;;;;;;15.48;78.79;100226.49;1722933;82;98831;-66
2022/06/20 02:37:48;;;;;;;7.55;4.47;;;;;;;15.51;78.85;100173.61;1727030;82;26761;-66
2022/06/20 02:40:22;;;;;;;8.45;4.83;;;;;;;15.49;78.79;100172.84;1724864;82;98875;-66
2022/06/20 02:42:51;;;;;;;;;;;;;;;15.52;78.79;100180.73;1731474;82;27048;-66
2022/06/20 02:45:19;;;;;;;6.80;4.00;;;;;;;15.53;78.80;100167.61;1731170;82;26255;-66
2022/06/20 02:47:50;;;;;;;9.35;4.37;;;;;;;15.50;78.74;100128.17;1715196;82;98477;-67
2022/06/20 02:50:22;;;;;;;7.12;4.05;;;;;;;15.50;78.69;100119.20;1727210;82;28613;-67
2022/06/20 02:53:03;;;;;;;10.43;4.40;;;;;;;15.48;78.65;100104.46;1702309;82;98963;-67
2022/06/20 02:55:34;;;;;;;11.48;4.15;;;;;;;15.50;78.69;100113.80;1724279;82;55001;-67
2022/06/20 02:58:05;;;;;;;9.45;4.80;;;;;;;15.48;78.72;100118.45;1724906;82;99076;-66
2022/06/20 03:00:46;;;;;;;7.87;4.50;;;;;;;15.48;78.78;100118.45;1727662;82;27462;-66
2022/06/20 03:03:24;;;;;;;13.62;5.20;;;;;;;15.52;78.86;100103.27;1693284;82;26487;-66
2022/06/20 03:05:50;;;;;;;8.25;4.85;;;;;;;15.46;78.61;100078.05;1723019;82;98668;-67
2022/06/20 03:08:18;;;;;;;10.63;5.78;;;;;;;15.32;78.75;100077.32;1731608;82;28138;-66
2022/06/20 03:10:49;;;;;;;11.70;5.87;;;;;;;15.24;78.98;100090.02;1728735;82;99045;-66
2022/06/20 03:13:16;;;;;;;;;;;;;;;15.28;79.16;100093.36;1734932;81;28318;-67
2022/06/20 03:15:44;;;;;;;11.33;5.08;;;;;;;15.29;79.12;100078.89;1730303;81;84526;-66
2022/06/20 03:18:14;;;;;;;10.43;5.78;;;;;;;15.26;79.14;100084.02;1737156;81;26042;-66
2022/06/20 03:20:41;;;;;;;12.80;5.57;;;;;;;15.24;79.33;100069.28;1732741;81;26899;-66
2022/06/20 03:23:12;;;;;;;9.08;5.05;;;;;;;15.26;79.40;100047.57;1732261;81;98768;-68
2022/06/20 03:25:40;;;;;;;14.18;5.95;;;;;;;15.27;79.46;100043.90;1736108;82;27685;-68
2022/06/20 03:28:17;;;;;;;12.05;6.85;;;;;;;15.30;79.49;100045.52;1734586;81;99198;-68
2022/06/20 03:30:44;;;;;;;18.12;6.47;;;;;;;15.25;79.50;100021.06;1727729;82;26548;-66
2022/06/20 03:33:16;;;;;;;13.43;6.47;;;;;;;15.23;79.69;100028.41;1732358;81;26079;-69
2022/06/20 03:36:11;;;;;;;16.25;7.45;;;;;;;15.19;79.77;100040.89;1732272;82;98901;-66
2022/06/20 03:38:40;;;;;;;16.80;7.97;;;;;;;15.15;79.83;100068.59;1733458;82;27432;-66
2022/06/20 03:41:10;;;;;;;24.32;8.65;;;;;;;15.17;80.01;100117.08;1728187;82;98858;-66
2022/06/20 03:43:40;;;;;;;13.30;6.15;;;;;;;15.20;79.84;100149.25;1737461;81;26440;-66
2022/06/20 03:46:25;;;;;;;18.37;6.85;;;;;;;15.23;80.08;100176.91;1736820;82;99066;-66
2022/06/20 03:49:21;;;;;;;18.77;7.72;;;;;;;15.14;79.88;100205.89;1731243;81;25688;-67
2022/06/20 03:52:06;;;;;;;14.75;5.92;;;;;;;15.14;80.12;100215.34;1735503;81;99198;-66
2022/06/20 03:54:58;;;;;;;13.72;5.85;;;;;;;15.18;80.01;100237.10;1734716;81;26362;-67
2022/06/20 03:57:36;;;;;;;18.92;7.60;;;;;;;15.21;79.95;100258.98;1733909;82;25731;-67
2022/06/20 04:00:08;;;;;;;23.45;8.98;;;;;;;15.16;80.02;100259.30;1753128;79;98736;-66
2022/06/20 04:02:53;;;;;;;23.80;9.28;;;;;;;15.14;80.09;100276.56;1761337;79;25753;-66
2022/06/20 04:05:44;;;;;;;21.33;9.43;;;;;;;15.15;80.10;100306.64;1757267;79;98913;-66
2022/06/20 04:08:20;;;;;;;28.52;9.33;;;;;;;15.12;80.10;100323.05;1762831;79;25817;-66
2022/06/20 04:10:59;;;;;;;19.02;9.88;;;;;;;15.08;80.47;100328.27;1761821;79;99132;-66
2022/06/20 04:14:04;;;;;;;22.35;9.88;;;;;;;15.04;80.98;100341.10;1749828;79;26662;-66
2022/06/20 04:16:57;;;;;;;20.97;9.90;;;;;;;14.94;80.89;100321.09;1698170;82;99190;-66
2022/06/20 04:19:31;;;;;;;17.85;8.43;;;;;;;14.86;81.06;100285.17;1742631;81;27361;-66
2022/06/20 04:22:03;;;;;;;23.38;8.05;;;;;;;14.81;81.03;100258.98;1741351;81;98955;-66
2022/06/20 04:24:48;;;;;;;22.10;9.08;;;;;;;14.81;81.23;100245.48;1741007;81;26517;-66
2022/06/20 04:27:26;;;;;;;12.20;6.92;;;;;;;14.80;81.34;100225.36;1743337;81;27322;-66
2022/06/20 04:30:00;;;;;;;18.85;6.62;;;;;;;14.80;81.54;100237.02;1745737;80;98964;-66
2022/06/20 04:32:52;;;;;;;19.52;6.58;;;;;;;14.74;81.57;100241.47;1743176;81;27501;-66
2022/06/20 04:35:26;;;;;;;15.05;6.10;;;;;;;14.78;81.69;100254.27;1743519;81;98847;-66
2022/06/20 04:38:15;;;;;;;12.98;6.28;;;;;;;14.79;81.47;100241.16;1745142;81;25886;-66
2022/06/20 04:41:07;;;;;;;11.78;5.67;;;;;;;14.76;81.51;100231.44;1745389;81;98859;-66
2022/06/20 04:43:45;;;;;;;19.02;6.53;;;;;;;14.74;81.36;100202.84;1725727;81;25309;-68
2022/06/20 04:46:30;;;;;;;26.33;7.37;;;;;;;14.75;81.43;100183.84;1694926;84;99096;-67
2022/06/20 04:51:45;;;;;;;18.50;6.92;;;;;;;14.78;81.26;100083.81;1725272;81;99201;-65
2022/06/20 04:54:17;;;;;;;20.25;6.20;;;;;;;14.75;81.21;100111.00;1693602;83;26847;-66
2022/06/20 04:56:47;;;;;;;13.62;6.53;;;;;;;14.71;81.34;100128.86;1696417;83;26377;-65
2022/06/20 04:59:18;;;;;;;12.15;5.65;;;;;;;14.75;81.39;100118.23;1725843;81;98893;-66
2022/06/20 05:01:45;;;;;;;13.70;6.53;;;;;;;14.78;81.28;100155.80;1726333;81;25886;-66
2022/06/20 05:04:32;;;;;;;14.43;6.53;;;;;;;14.80;81.41;100163.30;1724803;81;99073;-66
2022/06/20 05:07:02;;;;;;;14.10;6.65;;;;;;;14.88;81.52;100140.22;1699599;83;26110;-66
2022/06/20 05:09:51;;;;;;;17.32;6.90;;;;;;;14.96;81.27;100105.95;1694529;83;25866;-68
2022/06/20 05:12:46;;;;;;;13.40;7.05;;;;;;;14.95;81.12;100090.73;1695523;82;98624;-68
2022/06/20 05:15:27;;;;;;;13.35;5.67;;;;;;;14.97;81.25;100091.97;1734256;82;25825;-68
2022/06/20 05:17:57;;;;;;;9.48;5.80;;;;;;;15.01;81.05;100084.90;1750248;79;98682;-67
2022/06/20 05:20:30;;;;;;;12.85;5.22;;;;;;;14.99;80.90;100104.39;1757403;79;26332;-67
2022/06/20 05:23:11;;;;;;;9.58;5.15;;;;;;;14.93;80.79;100118.31;1761501;79;99218;-68
2022/06/20 05:25:38;;;;;;;7.92;5.05;;;;;;;14.94;81.03;100103.84;1754315;79;27629;-67
2022/06/20 05:28:15;;;;;;;7.50;4.92;;;;;;;14.99;80.99;100119.23;1760957;79;99220;-65
2022/06/20 05:30:42;;;;;;;8.95;4.95;;;;;;;15.05;80.98;100153.02;1757626;79;25684;-66
2022/06/20 05:33:19;;;;;;;10.10;5.15;;;;;;;15.07;80.78;100160.05;1757567;79;26840;-67
2022/06/20 05:36:10;;;;;;;9.03;4.87;;;;;;;15.10;80.90;100132.84;1739017;80;99203;-67
2022/06/20 05:38:48;;;;;;;18.23;5.22;;;;;;;15.17;80.80;100115.23;1755116;79;30892;-67
2022/06/20 05:41:16;;;;;;;10.45;4.80;;;;;;;15.26;80.78;100122.69;1754883;79;98931;-66
2022/06/20 05:43:44;;;;;;;9.33;4.92;;;;;;;15.37;81.00;100110.26;1758376;79;25845;-66
2022/06/20 05:46:25;;;;;;;8.40;4.37;;;;;;;15.52;80.88;100095.16;1760130;79;98972;-67
2022/06/20 05:48:55;;;;;;;5.42;4.50;;;;;;;15.63;80.62;100087.63;1759441;79;25741;-66
2022/06/20 05:51:26;;;;;;;9.00;4.57;;;;;;;15.73;80.57;100107.59;1761059;79;27431;-67
2022/06/20 05:54:06;;;;;;;9.70;4.78;;;;;;;15.79;80.39;100093.63;1760144;79;98724;-67
2022/06/20 05:56:38;;;;;;;9.28;5.30;;;;;;;15.81;80.38;100094.87;1716610;79;25821;-66
2022/06/20 05:59:09;;;;;;;11.03;5.70;;;;;;;15.93;80.56;100078.23;1760620;79;98751;-67
2022/06/20 06:01:40;;;;;;;16.40;6.42;;;;;;;16.03;80.52;100070.67;1751937;79;25423;-67
2022/06/20 06:04:21;;;;;;;6.80;4.30;;;;;;;16.07;80.23;100098.34;1755994;79;99055;-67
2022/06/20 06:07:05;;;;;;;6.95;4.37;;;;;;;15.96;79.92;100092.39;1736248;80;25893;-66
2022/06/20 06:10:03;;;;;;;6.83;4.00;;;;;;;15.87;79.73;100072.80;1757665;79;26402;-67
2022/06/20 06:12:40;;;;;;;11.80;4.00;;;;;;;15.78;79.78;100082.94;1761230;79;98677;-67
2022/06/20 06:15:35;;;;;;;8.38;4.03;;;;;;;15.87;80.07;100079.06;1743476;80;26540;-67
2022/06/20 06:18:07;;;;;;;5.28;3.83;;;;;;;16.02;79.86;100069.44;1699359;83;99130;-66
2022/06/20 06:20:35;;;;;;;10.60;4.47;;;;;;;16.16;79.99;100066.07;1744630;81;26883;-67
2022/06/20 06:23:06;;;;;;;5.72;3.85;;;;;;;16.23;79.57;100062.41;1743175;81;99113;-66
2022/06/20 06:25:39;;;;;;;7.83;3.87;;;;;;;16.21;79.35;100063.02;1745535;81;26078;-66
2022/06/20 06:28:18;;;;;;;9.30;4.85;;;;;;;16.18;79.31;100056.49;1699168;82;26149;-69
2022/06/20 06:31:06;;;;;;;8.30;4.25;;;;;;;16.18;79.31;100058.70;1716076;82;98797;-66
2022/06/20 06:33:40;;;;;;;15.68;4.75;;;;;;;16.22;79.17;100087.73;1732012;81;25736;-68
2022/06/20 06:36:17;;;;;;;6.10;4.50;;;;;;;16.25;79.11;100107.78;1684188;83;98887;-66
2022/06/20 06:38:52;;;;;;;8.83;4.20;;;;;;;16.27;79.04;100089.59;1690628;84;26043;-67
2022/06/20 06:41:30;;;;;;;8.20;5.03;;;;;;;16.33;78.88;100080.16;1727787;81;97931;-68
2022/06/20 06:44:01;;;;;;;8.98;4.72;;;;;;;16.23;78.62;100078.15;1692254;83;27540;-66
2022/06/20 06:46:36;;;;;;;;;;;;;;;16.24;78.65;100079.02;1695000;83;25859;-66
2022/06/20 06:49:23;;;;;;;7.72;4.50;;;;;;;16.27;78.76;100085.54;1701605;83;84321;-67
2022/06/20 06:51:58;;;;;;;9.18;4.42;;;;;;;16.47;79.04;100079.47;1689333;82;26088;-69
2022/06/20 06:54:46;;;;;;;7.17;4.37;;;;;;;16.70;78.83;100066.05;1746998;81;98724;-68
2022/06/20 06:57:44;;;;;;;8.83;3.67;;;;;;;16.85;78.55;100052.67;1744947;81;27556;-66
2022/06/20 07:00:21;;;;;;;10.18;5.05;;;;;;;16.92;78.38;100086.88;1737905;81;98749;-69
2022/06/20 07:03:02;;;;;;;8.50;5.10;;;;;;;16.79;78.02;100084.27;1746900;81;26482;-67
2022/06/20 07:05:37;;;;;;;11.95;5.83;;;;;;;16.84;78.09;100092.41;1681996;83;98822;-60
2022/06/20 07:08:20;;;;;;;12.07;6.75;;;;;;;16.98;78.24;100079.14;1692328;83;26530;-60
2022/06/20 07:11:18;;;;;;;13.00;6.47;;;;;;;16.91;77.46;100084.67;1726528;81;99022;-60
2022/06/20 07:14:01;;;;;;;12.33;6.15;;;;;;;16.83;77.50;100103.35;1730602;81;26274;-60
2022/06/20 07:16:57;;;;;;;12.55;6.40;;;;;;;16.75;77.26;100092.27;1698032;82;25798;-60
2022/06/20 07:19:25;;;;;;;12.33;7.10;;;;;;;16.66;77.21;100095.19;1664283;84;26134;-59
2022/06/20 07:21:52;;;;;;;13.72;7.15;;;;;;;16.52;77.15;100100.27;1744900;79;25724;-59
2022/06/20 07:24:23;;;;;;;13.35;8.53;;;;;;;16.50;77.03;100083.30;1755076;79;98898;-58
2022/06/20 07:26:58;;;;;;;14.28;8.20;;;;;;;16.34;76.63;100071.06;1763526;79;26304;-59
2022/06/20 07:29:32;;;;;;;22.93;9.90;;;;;;;16.26;77.00;100095.98;1760776;79;98957;-59
2022/06/20 07:32:16;;;;;;;26.20;10.30;;;;;;;16.28;76.91;100089.97;1758504;79;28155;-59
2022/06/20 07:34:50;;;;;;;20.12;11.18;;;;;;;16.14;76.50;100086.09;1759350;79;25908;-59
2022/06/20 07:37:27;;;;;;;26.15;14.75;;;;;;;16.00;76.68;100083.07;1759647;79;99113;-59
2022/06/20 07:39:58;;;;;;;36.00;18.48;;;;;;;15.97;76.73;100100.00;1758228;79;25785;-61
2022/06/20 07:42:29;;;;;;;38.58;15.00;;;;;;;15.89;76.84;100114.09;1757240;79;98982;-59
2022/06/20 07:45:01;;;;;;;24.95;13.43;;;;;;;15.90;76.82;100118.52;1764680;79;26090;-59
2022/06/20 07:47:35;;;;;;;17.45;10.10;;;;;;;15.79;76.85;100111.69;1762175;79;99179;-59
2022/06/20 07:50:09;;;;;;;15.40;8.70;;;;;;;15.70;76.91;100104.25;1763377;79;27464;-59
2022/06/20 07:52:45;;;;;;;15.75;8.25;;;;;;;15.68;77.04;100143.55;1757619;79;25769;-59
2022/06/20 07:55:19;;;;;;;11.70;8.08;;;;;;;15.48;77.07;100148.16;1759827;79;98850;-58
2022/06/20 07:58:09;;;;;;;9.60;7.05;;;;;;;15.42;77.50;100125.64;1756529;79;26084;-58
2022/06/20 08:00:44;;;;;;;18.52;8.25;;;;;;;15.42;77.41;100131.05;1758749;79;98847;-59
2022/06/20 08:03:36;;;;;;;10.78;6.83;;;;;;;15.48;77.67;100184.14;1759424;79;29564;-58
2022/06/20 08:06:23;;;;;;;8.68;6.97;;;;;;;15.50;77.52;100205.64;1755645;79;98999;-61
2022/06/20 08:09:06;;;;;;;9.20;6.85;;;;;;;15.21;78.04;100182.89;1763519;79;26407;-60
2022/06/20 08:12:15;;;;;;;10.08;6.30;;;;;;;14.75;78.24;100204.56;1760591;79;98843;-62
2022/06/20 08:14:59;;;;;;;15.00;7.70;;;;;;;14.56;78.94;100231.42;1755441;79;25760;-60
2022/06/20 08:18:06;;;;;;;9.68;6.75;;;;;;;14.46;79.41;100279.32;1760892;79;98990;-62
2022/06/20 08:20:38;;;;;;;12.43;7.12;;;;;;;14.41;79.92;100341.61;1761504;79;26393;-61
2022/06/20 08:23:24;;;;;;;15.23;7.92;;;;;;;14.31;80.31;100405.16;1756390;79;99100;-64
2022/06/20 08:25:58;;;;;;;19.00;9.23;;;;;;;14.18;80.59;100438.76;1757141;79;26104;-58
2022/06/20 08:28:36;;;;;;;23.92;10.28;;;;;;;13.98;80.73;100410.81;1762896;79;25704;-58
2022/06/20 08:31:22;;;;;;;15.10;10.55;;;;;;;13.81;81.36;100453.59;1758549;79;99104;-58
2022/06/20 08:34:08;;;;;;;11.00;7.30;;;;;;;13.69;82.20;100439.98;1754644;79;25856;-59
2022/06/20 08:37:09;;;;;;;16.73;9.23;;;;;;;13.55;83.02;100092.95;1762270;79;99020;-60
2022/06/20 08:39:48;;;;;;;12.10;8.28;;;;;;;13.48;83.48;100190.38;1763687;79;26092;-60
2022/06/20 08:42:49;;;;;;;20.00;9.35;;;;;;;13.54;83.47;100145.56;1759494;79;98956;-60
2022/06/20 08:45:33;;;;;;;14.45;9.33;;;;;;;13.51;83.32;100230.09;1747637;79;28545;-62
2022/06/20 08:48:22;;;;;;;19.95;9.85;;;;;;;13.55;83.56;100184.98;1760619;79;98753;-59
2022/06/20 08:51:15;;;;;;;16.12;7.90;;;;;;;13.67;83.52;100161.32;1764537;79;25847;-60
2022/06/20 08:54:18;;;;;;;11.75;7.65;;;;;;;13.72;83.55;100133.61;1757411;79;99037;-60
2022/06/20 08:57:28;;;;;;;13.48;7.65;;;;;;;13.81;83.99;100114.64;1758683;79;25663;-59
2022/06/20 09:00:14;;;;;;;10.55;7.37;;;;;;;13.97;84.17;100096.52;1761379;79;99334;-59
2022/06/20 09:03:01;;;;;;;8.65;6.60;;;;;;;14.20;84.35;100082.38;1761174;79;25721;-60
2022/06/20 09:05:44;;;;;;;9.23;6.65;;;;;;;14.21;84.50;100053.58;1758389;79;98857;-61
2022/06/20 09:08:33;;;;;;;9.03;6.47;;;;;;;14.21;84.49;100042.80;1763407;79;26137;-59
2022/06/20 09:11:28;;;;;;;11.60;5.92;;;;;;;14.27;84.58;100024.86;1761858;79;25687;-59
2022/06/20 09:14:15;;;;;;;8.23;5.80;;;;;;;14.37;84.82;100015.17;1758041;79;27468;-60
2022/06/20 09:17:09;;;;;;;7.87;5.72;;;;;;;14.30;84.69;100032.74;1762049;79;25786;-59
2022/06/20 09:20:00;;;;;;;7.45;6.28;;;;;;;14.28;84.87;100029.29;1764628;79;99088;-59
2022/06/20 09:22:32;;;;;;;8.25;5.53;;;;;;;14.21;84.97;100022.59;1756246;79;26004;-59
2022/06/20 09:25:19;;;;;;;7.30;4.90;;;;;;;14.18;85.08;100013.36;1762847;79;98983;-60
2022/06/20 09:27:50;;;;;;;8.13;5.03;;;;;;;14.15;85.03;100021.66;1764368;79;27395;-60
2022/06/20 09:30:50;;;;;;;9.63;5.92;;;;;;;14.07;85.29;100052.30;1755797;79;99015;-60
2022/06/20 09:34:09;;;;;;;6.15;4.92;;;;;;;14.11;85.32;100111.28;1758452;79;26358;-59
2022/06/20 09:37:05;;;;;;;8.93;6.30;;;;;;;14.08;85.27;100194.17;1732648;80;98706;-59
2022/06/20 09:39:48;;;;;;;23.95;6.62;;;;;;;13.98;85.33;100138.17;1726251;82;25687;-59
2022/06/20 09:42:22;;;;;;;8.23;5.70;;;;;;;13.96;85.39;100137.41;1729595;81;99057;-59
2022/06/20 09:45:12;;;;;;;15.53;6.40;;;;;;;13.95;85.45;100080.93;1732057;82;25866;-59
2022/06/20 09:48:13;;;;;;;17.00;7.28;;;;;;;13.92;85.49;99927.08;1730208;80;98890;-60
2022/06/20 09:51:05;;;;;;;14.00;6.85;;;;;;;13.90;85.55;99918.24;1732572;80;26110;-59
2022/06/20 09:53:59;;;;;;;12.10;7.72;;;;;;;13.99;85.59;99988.15;1704747;80;98859;-60
2022/06/20 09:56:30;;;;;;;16.62;7.30;;;;;;;14.10;85.68;99984.72;1733339;80;27509;-60
2022/06/20 09:59:16;;;;;;;10.63;7.47;;;;;;;14.34;85.81;100013.17;1703774;82;25852;-59
2022/06/20 10:02:00;;;;;;;13.00;9.10;;;;;;;14.58;85.91;100033.08;1707094;82;98917;-61
2022/06/20 10:05:00;;;;;;;18.45;10.08;;;;;;;14.85;86.09;100041.08;1738388;80;26086;-59
2022/06/20 10:07:52;;;;;;;10.18;7.67;;;;;;;15.16;86.23;100048.72;1721973;82;98970;-59
2022/06/20 10:10:50;;;;;;;12.75;6.75;;;;;;;15.28;85.94;100032.12;1729076;82;28297;-61
2022/06/20 10:13:51;;;;;;;7.92;6.70;;;;;;;15.30;85.66;100023.91;1730804;82;98859;-60
2022/06/20 10:16:29;;;;;;;14.80;6.37;;;;;;;15.23;85.67;100045.09;1754383;79;32524;-60
2022/06/20 10:19:03;;;;;;;6.90;6.20;;;;;;;15.15;85.35;100048.34;1751856;79;98855;-60
2022/06/20 10:21:50;;;;;;;5.92;5.28;;;;;;;14.94;85.30;100054.78;1756829;79;25833;-59
2022/06/20 10:24:34;;;;;;;7.08;5.17;;;;;;;14.83;85.30;100056.03;1761102;79;98609;-59
2022/06/20 10:27:09;;;;;;;9.13;5.65;;;;;;;14.74;85.45;100041.83;1758743;79;25730;-59
2022/06/20 10:30:03;;;;;;;8.28;5.87;;;;;;;14.70;85.54;100078.57;1759455;79;98861;-59
2022/06/20 10:32:52;;;;;;;10.20;6.35;;;;;;;14.67;85.59;100112.02;1754882;79;26082;-58
2022/06/20 10:35:27;;;;;;;7.60;5.55;;;;;;;14.66;85.77;100104.89;1734396;79;26422;-59
2022/06/20 10:38:11;;;;;;;12.75;6.42;;;;;;;14.70;85.78;100150.06;1754454;79;97968;-59
2022/06/20 10:40:58;;;;;;;8.58;6.30;;;;;;;14.66;85.93;100122.91;1757358;79;26485;-60
2022/06/20 10:43:59;;;;;;;13.48;6.87;;;;;;;14.59;85.72;100124.68;1761247;79;98724;-59
2022/06/20 10:46:33;;;;;;;9.20;5.97;;;;;;;14.57;86.06;100121.22;1761905;79;26183;-60
2022/06/20 10:49:17;;;;;;;13.62;6.83;;;;;;;14.57;86.00;100143.28;1723173;79;98725;-59
2022/06/20 10:52:22;;;;;;;10.23;6.08;;;;;;;14.54;86.00;100107.08;1764395;79;28103;-61
2022/06/20 10:55:16;;;;;;;10.70;6.85;;;;;;;14.57;86.13;100043.01;1760574;79;98795;-61
2022/06/20 10:58:12;;;;;;;14.00;8.18;;;;;;;14.63;86.18;99984.22;1758591;79;25796;-60
2022/06/20 11:00:49;;;;;;;11.68;7.78;;;;;;;14.70;86.20;99947.74;1764385;79;98753;-60
2022/06/20 11:03:40;;;;;;;10.93;7.60;;;;;;;14.71;86.10;99927.89;1763011;79;25726;-60
2022/06/20 11:06:28;;;;;;;10.03;7.80;;;;;;;14.76;86.27;99936.52;1759085;79;98990;-60
2022/06/20 11:09:08;;;;;;;12.53;7.67;;;;;;;14.81;86.36;99962.19;1761955;79;25735;-60
2022/06/20 11:11:56;;;;;;;10.40;8.10;;;;;;;14.90;86.48;99976.86;1759852;79;98828;-59
2022/06/20 11:14:40;;;;;;;11.18;8.73;;;;;;;15.02;86.67;99948.98;1756169;79;26397;-59
2022/06/20 11:17:42;;;;;;;14.53;8.87;;;;;;;15.13;86.48;99920.72;1762097;79;25785;-60
2022/06/20 11:20:30;;;;;;;11.43;8.05;;;;;;;15.29;86.74;99931.25;1758057;79;98491;-59
2022/06/20 11:23:02;;;;;;;9.90;7.75;;;;;;;15.51;86.70;99993.50;1762653;79;25841;-59
2022/06/20 11:26:10;;;;;;;9.53;7.80;;;;;;;15.53;86.58;100005.54;1760790;79;98496;-59
2022/06/20 11:28:51;;;;;;;10.82;7.58;;;;;;;15.60;86.77;100010.03;1765679;79;26710;-60
2022/06/20 11:31:39;;;;;;;11.95;7.85;;;;;;;15.71;86.90;100019.52;1756993;79;98959;-60
2022/06/20 11:34:29;;;;;;;8.73;6.55;;;;;;;15.80;86.90;100029.16;1755823;79;29555;-60
2022/06/20 11:37:27;;;;;;;8.58;6.50;;;;;;;15.76;86.87;100040.30;1760850;79;98711;-59
2022/06/20 11:40:08;;;;;;;7.25;6.35;;;;;;;15.80;86.72;100071.04;1765871;79;26602;-61
2022/06/20 11:43:19;;;;;;;18.37;8.18;;;;;;;15.73;86.74;100075.66;1756517;79;98757;-59
2022/06/20 11:45:53;;;;;;;8.57;7.07;;;;;;;15.70;86.86;100090.25;1764518;79;25846;-62
2022/06/20 11:48:39;;;;;;;14.87;8.65;;;;;;;15.62;86.85;100109.35;1758713;79;99340;-59
2022/06/20 11:51:23;;;;;;;16.52;7.90;;;;;;;15.53;86.76;100112.23;1745380;79;26175;-61
2022/06/20 11:54:09;;;;;;;12.78;8.18;;;;;;;15.39;86.77;100091.63;1765886;79;26515;-60
2022/06/20 11:56:41;;;;;;;14.18;8.23;;;;;;;15.30;86.87;100114.37;1765574;79;26343;-60
2022/06/20 11:59:24;;;;;;;10.48;8.48;;;;;;;15.24;86.92;100111.13;1757304;79;25758;-60
2022/06/20 12:02:35;;;;;;;18.25;10.03;;;;;;;15.19;86.87;100102.49;1735743;79;98980;-62
2022/06/20 12:05:37;;;;;;;11.25;7.78;;;;;;;15.14;86.96;100099.74;1760566;79;25798;-60
2022/06/20 12:08:17;;;;;;;15.43;9.08;;;;;;;15.16;87.15;100103.20;1754433;79;98741;-61
2022/06/20 12:10:55;;;;;;;14.78;9.40;;;;;;;15.11;87.00;100099.96;1760651;79;26489;-62
2022/06/20 12:13:43;;;;;;;12.80;9.38;;;;;;;15.08;87.01;100110.48;1758647;79;98873;-60
2022/06/20 12:16:27;;;;;;;12.07;9.33;;;;;;;15.03;87.01;100114.00;1752103;79;27433;-60
2022/06/20 12:25:14;;;;;;;20.52;13.60;;;;;;;15.02;87.14;100114.11;1722263;81;99294;-60
2022/06/20 12:27:42;;;;;;;23.55;15.70;;;;;;;15.01;87.15;100114.59;1741958;81;25813;-59
2022/06/20 12:30:16;;;;;;;18.40;14.45;;;;;;;14.98;87.13;100097.75;1746468;80;29067;-59